Glens Falls, NY (12801)

07:53 EDT le 28 mai 2015 (GMT -0400)
Glens Falls, NY | | Change Station
CLOSE
Current Station
Stations météorologiques personnelles
Location: Glens Falls, NY
Altitude: 331 ft
Stations météo à proximité

Alt. 331 ft 43.31 °N, 73.64 °W | Updated 8 minutes ago

Overcast
Couvert
72.5 ° F
Paraît 77 ° F
N
0.0
Vent Variable Vent de NNO

Aujourd'hui
Haut(e) -- | Bas -- ° F
--% Risque de précip.
Hier
Haut(e) -- | Bas -- ° F
Precip. -- pouce
5:19 AM 8:24 PM
Lune gibbeuse croissante, 75% visible
Pression 30.08 pouce
Visibilité 7.0 Miles terrestres
Nuages Couvert 700 ft
indice de chaleur 77 ° F
Point de rosée 53 ° F
Humidité 51%
Précipitations 0.00 pouce
Profondeur de la couche neigeuse Non disponible.
UV 0 sur 12
Pollen 9.40 sur 12
Qualité de l'air Non disponible.
Flu Activity Widespread
METAR KGFL 281053Z AUTO 19005KT 7SM OVC007 20/18 A3008 RMK AO2 SLP184 T02000178

More Conditions Fewer Conditions

Pression 30.08 pouce
Visibilité 7.0 Miles terrestres
Nuages Couvert 700 ft
indice de chaleur 77 ° F
Point de rosée 53 ° F
Humidité 51%
Précipitations 0.00 pouce
Profondeur de la couche neigeuse Non disponible.
UV 0 sur 12
Pollen 9.40 sur 12
Qualité de l'air Non disponible.
Flu Activity Widespread
METAR KGFL 281053Z AUTO 19005KT 7SM OVC007 20/18 A3008 RMK AO2 SLP184 T02000178

More Conditions Fewer Conditions

10-Day Weather Forecast

Almanac

Astronomie

May. 28, 2015 Lever Coucher
Temps réel
Crépuscule civil
Crépuscule nautique
Crépuscule astronomique
Lune
Durée de lumière visible
Longueur du jour
Tomorrow will be .
, % of the Moon is Illuminated

Extrêmes aujourd'hui

State Highs State Lows

Community

WunderPhotos

Upload Photos

1,824,959 Photos téléchargées !

WunderBlogs® & News

Nearby

Qualité de l'air

  Qualité de l'air Indice de la qualité de l'air Polluant
Not available.

Épaisseur de neige

Station Depth Altitude

Activité sismique

Ville Distance Mag. Time & Date
Minimum magnitude displayed is 2.5.

Températures des eaux côtières

Lieu Température

Stations

Stations météo à proximité

Emplacement de la station Température Refroidissement éolien Point de rosée Humidité Vent Precip. Alt. Mise à jour Type